Time;durP1;ratioP1;P1;durP2;ratioP2;P2;SDS_P1;SDS_P2;PMS_P1;PMS_P2;Temp;Humidity;BMP_temperature;BMP_pressure;BME280_temperature;BME280_humidity;BME280_pressure;Samples;Min_cycle;Max_cycle;Signal;HPM_P1;HPM_P2
2020/12/20 00:01:58;;;;;;;12.30;6.60;;;;;;;;;;10402408;28;20740;-76
2020/12/20 00:06:59;;;;;;;15.47;6.60;;;;;;;;;;10404771;28;20212;-76
2020/12/20 00:12:03;;;;;;;13.87;7.00;;;;;;;;;;10402335;28;20283;-77
2020/12/20 00:17:05;;;;;;;13.90;6.60;;;;;;;;;;10410154;28;20225;-74
2020/12/20 00:22:07;;;;;;;3.70;1.83;;;;;;;;;;10400825;28;20244;-73
2020/12/20 00:27:11;;;;;;;12.13;5.40;;;;;;;;;;10403941;28;20189;-73
2020/12/20 00:32:13;;;;;;;12.83;6.27;;;;;;;;;;10404066;28;20639;-74
2020/12/20 00:37:15;;;;;;;13.93;7.53;;;;;;;;;;10394740;28;20238;-75
2020/12/20 00:42:17;;;;;;;13.77;7.57;;;;;;;;;;10398540;28;20221;-75
2020/12/20 00:47:19;;;;;;;13.37;7.10;;;;;;;;;;10394562;28;20282;-74
2020/12/20 00:52:21;;;;;;;13.43;6.87;;;;;;;;;;10395801;28;20240;-74
2020/12/20 00:57:24;;;;;;;13.10;7.33;;;;;;;;;;10397229;28;20217;-73
2020/12/20 01:02:25;;;;;;;12.80;5.77;;;;;;;;;;10400010;28;20312;-74
2020/12/20 01:07:27;;;;;;;7.70;3.70;;;;;;;;;;10399442;28;20206;-73
2020/12/20 01:12:31;;;;;;;15.87;7.87;;;;;;;;;;10403458;28;20212;-74
2020/12/20 01:17:32;;;;;;;15.00;7.50;;;;;;;;;;10396081;28;20240;-76
2020/12/20 01:22:34;;;;;;;12.03;5.87;;;;;;;;;;10393455;28;20224;-76
2020/12/20 01:27:36;;;;;;;14.57;7.27;;;;;;;;;;10402527;28;20281;-75
2020/12/20 01:32:38;;;;;;;15.27;8.17;;;;;;;;;;10397724;28;20233;-74
2020/12/20 01:37:39;;;;;;;14.67;7.70;;;;;;;;;;10401974;28;20272;-74
2020/12/20 01:42:42;;;;;;;13.17;7.23;;;;;;;;;;10399255;28;20272;-76
2020/12/20 01:47:43;;;;;;;14.93;7.70;;;;;;;;;;10397766;28;20514;-75
2020/12/20 01:52:45;;;;;;;14.97;7.50;;;;;;;;;;10392575;28;20205;-74
2020/12/20 01:57:47;;;;;;;14.93;6.17;;;;;;;;;;10406224;28;20296;-74
2020/12/20 02:02:48;;;;;;;12.73;5.90;;;;;;;;;;10407264;28;20217;-76
2020/12/20 02:07:50;;;;;;;15.17;6.83;;;;;;;;;;10405741;28;20203;-74
2020/12/20 02:12:53;;;;;;;13.53;7.30;;;;;;;;;;10407402;28;20218;-74
2020/12/20 02:17:54;;;;;;;10.23;5.07;;;;;;;;;;10407649;28;20303;-75
2020/12/20 02:22:57;;;;;;;11.93;5.33;;;;;;;;;;10407828;28;20233;-76
2020/12/20 02:27:58;;;;;;;6.77;3.20;;;;;;;;;;10405980;28;20650;-75
2020/12/20 02:33:00;;;;;;;13.53;6.90;;;;;;;;;;10409562;28;20272;-74
2020/12/20 02:38:02;;;;;;;13.80;7.00;;;;;;;;;;10420743;28;20218;-74
2020/12/20 02:43:04;;;;;;;16.17;7.53;;;;;;;;;;10407062;28;20317;-76
2020/12/20 02:48:05;;;;;;;14.60;7.23;;;;;;;;;;10405216;28;20311;-75
2020/12/20 02:53:09;;;;;;;16.20;8.00;;;;;;;;;;10406238;28;20210;-74
2020/12/20 02:58:11;;;;;;;15.87;7.87;;;;;;;;;;10406030;28;20210;-74
2020/12/20 03:03:12;;;;;;;13.77;6.87;;;;;;;;;;10403982;28;20731;-77
2020/12/20 03:08:15;;;;;;;15.93;7.83;;;;;;;;;;10405482;28;20198;-74
2020/12/20 03:13:16;;;;;;;13.20;6.30;;;;;;;;;;10405405;28;20222;-75
2020/12/20 03:18:18;;;;;;;14.33;7.07;;;;;;;;;;10408867;28;20212;-76
2020/12/20 03:23:29;;;;;;;9.20;4.77;;;;;;;;;;10406938;28;20630;-77
2020/12/20 03:28:31;;;;;;;14.10;6.50;;;;;;;;;;10405472;28;20255;-76
2020/12/20 03:33:33;;;;;;;15.67;8.20;;;;;;;;;;10406730;28;20291;-76
2020/12/20 03:38:36;;;;;;;13.30;7.47;;;;;;;;;;10402966;28;20257;-75
2020/12/20 03:43:37;;;;;;;14.70;7.17;;;;;;;;;;10404670;28;20295;-76
2020/12/20 03:48:39;;;;;;;14.40;7.33;;;;;;;;;;10409852;28;20178;-77
2020/12/20 03:53:48;;;;;;;14.30;7.30;;;;;;;;;;10404544;28;20763;-76
2020/12/20 03:58:50;;;;;;;14.23;6.57;;;;;;;;;;10406290;28;20209;-77
2020/12/20 04:03:51;;;;;;;14.70;6.90;;;;;;;;;;10404104;28;20641;-73
2020/12/20 04:08:54;;;;;;;4.00;2.00;;;;;;;;;;10405151;28;20194;-74
2020/12/20 04:13:55;;;;;;;13.30;7.17;;;;;;;;;;10405686;28;20320;-76
2020/12/20 04:18:57;;;;;;;13.97;7.13;;;;;;;;;;10407023;28;20223;-76
2020/12/20 04:24:05;;;;;;;14.27;7.30;;;;;;;;;;10399271;28;20205;-75
2020/12/20 04:29:07;;;;;;;13.27;7.10;;;;;;;;;;10404672;28;20192;-78
2020/12/20 04:34:09;;;;;;;14.07;7.50;;;;;;;;;;10401698;28;20222;-77
2020/12/20 04:39:11;;;;;;;16.10;7.47;;;;;;;;;;10395652;28;20229;-76
2020/12/20 04:44:12;;;;;;;14.50;7.83;;;;;;;;;;10397403;28;20233;-75
2020/12/20 04:49:14;;;;;;;16.20;7.60;;;;;;;;;;10399117;28;20214;-76
2020/12/20 04:54:26;;;;;;;13.87;7.77;;;;;;;;;;10390075;28;20696;-76
2020/12/20 04:59:29;;;;;;;17.23;8.27;;;;;;;;;;10401462;28;20313;-76
2020/12/20 05:04:30;;;;;;;15.47;7.73;;;;;;;;;;10401871;28;20218;-75
2020/12/20 05:09:45;;;;;;;15.83;7.73;;;;;;;;;;10407878;28;20193;-75
2020/12/20 05:14:47;;;;;;;16.40;7.83;;;;;;;;;;10398186;28;20324;-76
2020/12/20 05:19:48;;;;;;;14.50;7.60;;;;;;;;;;10400279;28;20273;-74
2020/12/20 05:24:51;;;;;;;15.80;7.90;;;;;;;;;;10403482;28;20313;-75
2020/12/20 05:29:52;;;;;;;12.93;6.63;;;;;;;;;;10401317;28;20229;-76
2020/12/20 05:34:57;;;;;;;15.07;7.23;;;;;;;;;;10401955;28;20562;-74
2020/12/20 05:40:01;;;;;;;13.20;6.77;;;;;;;;;;10397183;28;20260;-75
2020/12/20 05:45:05;;;;;;;11.93;5.27;;;;;;;;;;10401806;28;20275;-74
2020/12/20 05:50:06;;;;;;;14.97;7.03;;;;;;;;;;10397433;28;20228;-75
2020/12/20 05:55:11;;;;;;;14.60;7.13;;;;;;;;;;10397325;28;20240;-74
2020/12/20 06:00:13;;;;;;;14.17;6.90;;;;;;;;;;10401117;28;20284;-74
2020/12/20 06:05:15;;;;;;;15.90;7.67;;;;;;;;;;10400256;28;20301;-75
2020/12/20 06:10:17;;;;;;;14.17;7.10;;;;;;;;;;10397961;28;20507;-74
2020/12/20 06:15:19;;;;;;;13.73;7.50;;;;;;;;;;10401756;28;20216;-74
2020/12/20 06:20:27;;;;;;;16.53;7.43;;;;;;;;;;10401022;28;20201;-74
2020/12/20 06:25:30;;;;;;;13.97;7.23;;;;;;;;;;10400704;28;20301;-74
2020/12/20 06:30:31;;;;;;;10.73;5.10;;;;;;;;;;10396688;28;20190;-75
2020/12/20 06:35:33;;;;;;;15.10;5.87;;;;;;;;;;10397809;28;20213;-74
2020/12/20 06:40:42;;;;;;;13.53;7.23;;;;;;;;;;10401056;28;20190;-71
2020/12/20 06:45:44;;;;;;;12.20;5.53;;;;;;;;;;10408310;28;20196;-76
2020/12/20 06:50:47;;;;;;;8.73;3.67;;;;;;;;;;10408516;28;20190;-75
2020/12/20 06:55:49;;;;;;;12.60;6.33;;;;;;;;;;10407792;28;20859;-75
2020/12/20 07:00:51;;;;;;;7.60;3.53;;;;;;;;;;10406627;28;20190;-75
2020/12/20 07:05:53;;;;;;;13.17;6.27;;;;;;;;;;10406326;28;20222;-76
2020/12/20 07:10:56;;;;;;;13.67;6.20;;;;;;;;;;10407617;28;20229;-73
2020/12/20 07:16:03;;;;;;;11.30;6.13;;;;;;;;;;10402421;28;20232;-75
2020/12/20 07:21:05;;;;;;;13.00;6.73;;;;;;;;;;10404137;28;20705;-71
2020/12/20 07:26:07;;;;;;;13.97;7.40;;;;;;;;;;10402511;28;20693;-74
2020/12/20 07:31:12;;;;;;;11.90;6.07;;;;;;;;;;10405074;28;20272;-74
2020/12/20 07:36:14;;;;;;;12.90;6.40;;;;;;;;;;10400767;28;20256;-73
2020/12/20 07:41:18;;;;;;;10.57;5.40;;;;;;;;;;10402632;28;20263;-73
2020/12/20 07:46:20;;;;;;;13.10;6.30;;;;;;;;;;10397454;28;20189;-74
2020/12/20 07:51:24;;;;;;;12.00;5.80;;;;;;;;;;10400792;28;20226;-71
2020/12/20 07:56:27;;;;;;;8.20;4.00;;;;;;;;;;10404016;28;20212;-71
2020/12/20 08:01:29;;;;;;;14.90;7.17;;;;;;;;;;10405774;28;20206;-70
2020/12/20 08:06:32;;;;;;;12.17;6.20;;;;;;;;;;10405076;28;20558;-71
2020/12/20 08:11:35;;;;;;;12.90;5.47;;;;;;;;;;10413918;28;20209;-73
2020/12/20 08:16:37;;;;;;;11.43;5.70;;;;;;;;;;10407863;28;20198;-73
2020/12/20 08:21:44;;;;;;;9.27;4.47;;;;;;;;;;10403545;28;20210;-72
2020/12/20 08:26:46;;;;;;;11.67;5.57;;;;;;;;;;10402864;28;20480;-72
2020/12/20 08:31:48;;;;;;;10.53;5.40;;;;;;;;;;10397183;28;20220;-75
2020/12/20 08:36:50;;;;;;;11.40;5.77;;;;;;;;;;10394490;28;20223;-73
2020/12/20 08:42:02;;;;;;;12.27;6.10;;;;;;;;;;10394481;28;20225;-73
2020/12/20 08:47:05;;;;;;;10.50;5.27;;;;;;;;;;10402202;28;20193;-73
2020/12/20 08:52:13;;;;;;;10.97;5.80;;;;;;;;;;10402756;28;20263;-73
2020/12/20 08:57:16;;;;;;;10.50;5.10;;;;;;;;;;10403235;28;20786;-70
2020/12/20 09:02:19;;;;;;;11.63;6.07;;;;;;;;;;10404217;28;20217;-73
2020/12/20 09:07:29;;;;;;;11.73;6.20;;;;;;;;;;10396642;28;20565;-75
2020/12/20 09:12:31;;;;;;;10.77;5.50;;;;;;;;;;10403564;28;20209;-73
2020/12/20 09:17:34;;;;;;;10.63;5.83;;;;;;;;;;10399025;28;20368;-73
2020/12/20 09:22:43;;;;;;;12.73;5.67;;;;;;;;;;10400769;28;20267;-71
2020/12/20 09:27:52;;;;;;;11.77;6.30;;;;;;;;;;10385565;28;20721;-71
2020/12/20 09:32:54;;;;;;;12.23;6.20;;;;;;;;;;10399779;28;20244;-72
2020/12/20 09:37:55;;;;;;;11.10;5.40;;;;;;;;;;10399250;28;20235;-73
2020/12/20 09:42:58;;;;;;;11.60;5.97;;;;;;;;;;10400408;28;20217;-73
2020/12/20 09:48:00;;;;;;;10.97;5.80;;;;;;;;;;10396699;28;20224;-72
2020/12/20 09:53:01;;;;;;;11.03;5.70;;;;;;;;;;10393723;28;20220;-72
2020/12/20 09:58:04;;;;;;;10.70;5.70;;;;;;;;;;10395419;28;20214;-72
2020/12/20 10:03:06;;;;;;;11.37;5.97;;;;;;;;;;10397878;28;20278;-72
2020/12/20 10:08:08;;;;;;;11.13;5.90;;;;;;;;;;10387927;28;20740;-73
2020/12/20 10:13:10;;;;;;;11.40;5.77;;;;;;;;;;10402767;28;20504;-75
2020/12/20 10:18:12;;;;;;;10.63;5.70;;;;;;;;;;10398808;28;20202;-75
2020/12/20 10:23:13;;;;;;;10.10;5.13;;;;;;;;;;10406769;28;20704;-74
2020/12/20 10:28:16;;;;;;;10.67;5.53;;;;;;;;;;10398953;28;20190;-75
2020/12/20 10:33:18;;;;;;;10.00;5.20;;;;;;;;;;10408530;28;20210;-73
2020/12/20 10:38:20;;;;;;;10.00;5.73;;;;;;;;;;10407290;28;20236;-74
2020/12/20 10:43:22;;;;;;;10.63;5.87;;;;;;;;;;10407872;28;20232;-73
2020/12/20 10:48:24;;;;;;;11.03;5.73;;;;;;;;;;10402080;28;20221;-72
2020/12/20 10:53:26;;;;;;;10.27;5.63;;;;;;;;;;10403823;28;20236;-73
2020/12/20 10:58:28;;;;;;;10.93;5.70;;;;;;;;;;10400348;28;20268;-74
2020/12/20 11:03:30;;;;;;;10.50;5.73;;;;;;;;;;10407152;28;20220;-73
2020/12/20 11:08:31;;;;;;;10.07;5.43;;;;;;;;;;10406309;28;20220;-73
2020/12/20 11:13:36;;;;;;;12.00;6.30;;;;;;;;;;10407068;28;20224;-73
2020/12/20 11:18:38;;;;;;;11.30;6.07;;;;;;;;;;10407578;28;20232;-72
2020/12/20 11:23:40;;;;;;;11.77;6.23;;;;;;;;;;10405456;28;20325;-73
2020/12/20 11:28:43;;;;;;;11.73;6.33;;;;;;;;;;10405618;28;20247;-73
2020/12/20 11:33:45;;;;;;;10.13;5.93;;;;;;;;;;10406717;28;20279;-73
2020/12/20 11:38:47;;;;;;;12.87;6.90;;;;;;;;;;10404103;28;20550;-74
2020/12/20 11:43:50;;;;;;;10.90;6.30;;;;;;;;;;10401058;28;20214;-71
2020/12/20 11:48:51;;;;;;;11.27;6.40;;;;;;;;;;10405435;28;20701;-73
2020/12/20 11:53:53;;;;;;;12.73;6.80;;;;;;;;;;10406612;28;20301;-73
2020/12/20 11:58:56;;;;;;;12.90;6.60;;;;;;;;;;10405652;28;20297;-72
2020/12/20 12:03:57;;;;;;;23.77;9.40;;;;;;;;;;10404313;28;20302;-72
2020/12/20 12:08:59;;;;;;;13.03;7.17;;;;;;;;;;10400625;28;20221;-73
2020/12/20 12:14:01;;;;;;;13.10;7.10;;;;;;;;;;10400998;28;20213;-73
2020/12/20 12:19:03;;;;;;;13.87;7.53;;;;;;;;;;10404965;28;20205;-72
2020/12/20 12:24:04;;;;;;;13.27;7.27;;;;;;;;;;10402793;28;20621;-72
2020/12/20 12:29:09;;;;;;;13.83;7.67;;;;;;;;;;10404357;28;20630;-70
2020/12/20 12:34:10;;;;;;;15.03;7.40;;;;;;;;;;10398702;28;20237;-73
2020/12/20 12:39:13;;;;;;;13.53;6.90;;;;;;;;;;10393331;28;20708;-73
2020/12/20 12:44:15;;;;;;;13.50;6.83;;;;;;;;;;10396490;28;20206;-72
2020/12/20 12:49:17;;;;;;;14.33;7.50;;;;;;;;;;10393588;28;20197;-73
2020/12/20 12:54:19;;;;;;;13.77;7.23;;;;;;;;;;10395322;28;20228;-73
2020/12/20 12:59:31;;;;;;;13.03;7.60;;;;;;;;;;10398923;28;20209;-73
2020/12/20 13:04:34;;;;;;;13.97;7.10;;;;;;;;;;10402695;28;20736;-72
2020/12/20 13:09:35;;;;;;;12.57;7.03;;;;;;;;;;10402085;28;20614;-73
2020/12/20 13:14:38;;;;;;;13.83;7.87;;;;;;;;;;10402010;28;20241;-74
2020/12/20 13:19:39;;;;;;;14.70;7.47;;;;;;;;;;10394863;28;20237;-72
2020/12/20 13:24:41;;;;;;;17.13;8.83;;;;;;;;;;10393386;28;20795;-74
2020/12/20 13:29:48;;;;;;;14.77;7.97;;;;;;;;;;10396186;28;20181;-74
2020/12/20 13:34:49;;;;;;;13.17;7.70;;;;;;;;;;10397194;28;20367;-74
2020/12/20 13:39:51;;;;;;;14.10;7.40;;;;;;;;;;10400030;28;20213;-73
2020/12/20 13:45:05;;;;;;;13.73;7.63;;;;;;;;;;10402333;28;20270;-74
2020/12/20 13:50:06;;;;;;;14.33;7.57;;;;;;;;;;10397758;28;20276;-73
2020/12/20 13:55:08;;;;;;;14.53;8.00;;;;;;;;;;10411205;28;20240;-74
2020/12/20 14:00:10;;;;;;;13.83;8.00;;;;;;;;;;10407951;28;20213;-73
2020/12/20 14:05:13;;;;;;;15.53;7.67;;;;;;;;;;10413301;28;20210;-74
2020/12/20 14:10:15;;;;;;;14.80;8.07;;;;;;;;;;10409749;28;20224;-72
2020/12/20 14:15:17;;;;;;;13.83;7.73;;;;;;;;;;10411112;28;20598;-73
2020/12/20 14:20:19;;;;;;;16.93;9.13;;;;;;;;;;10408229;28;20209;-73
2020/12/20 14:25:24;;;;;;;14.60;8.53;;;;;;;;;;10408660;28;20217;-71
2020/12/20 14:30:26;;;;;;;26.77;12.57;;;;;;;;;;10407802;28;20689;-73
2020/12/20 14:35:28;;;;;;;15.93;8.63;;;;;;;;;;10407595;28;20237;-73
2020/12/20 14:40:30;;;;;;;15.47;8.80;;;;;;;;;;10408736;28;20260;-73
2020/12/20 14:45:33;;;;;;;15.13;8.83;;;;;;;;;;10407882;28;20250;-75
2020/12/20 14:50:35;;;;;;;16.67;9.00;;;;;;;;;;10408025;28;20194;-75
2020/12/20 14:55:36;;;;;;;19.03;9.77;;;;;;;;;;10407356;28;20300;-74
2020/12/20 15:00:39;;;;;;;15.40;8.63;;;;;;;;;;10408341;28;20209;-74
2020/12/20 15:05:40;;;;;;;16.73;8.97;;;;;;;;;;10405490;28;20190;-75
2020/12/20 15:10:42;;;;;;;16.87;9.87;;;;;;;;;;10415494;28;20190;-72
2020/12/20 15:15:44;;;;;;;17.23;9.53;;;;;;;;;;10413750;28;20198;-73
2020/12/20 15:20:46;;;;;;;17.90;9.63;;;;;;;;;;10410626;28;20220;-72
2020/12/20 15:25:47;;;;;;;18.70;10.07;;;;;;;;;;10407907;28;20190;-74
2020/12/20 15:30:52;;;;;;;19.53;9.93;;;;;;;;;;10405336;28;20216;-73
2020/12/20 15:35:54;;;;;;;17.47;9.53;;;;;;;;;;10407693;28;20301;-73
2020/12/20 15:40:55;;;;;;;17.63;8.80;;;;;;;;;;10407217;28;20225;-72
2020/12/20 15:45:58;;;;;;;20.53;10.33;;;;;;;;;;10409419;28;20263;-74
2020/12/20 15:50:59;;;;;;;23.27;12.03;;;;;;;;;;10405186;28;20601;-74
2020/12/20 15:56:01;;;;;;;16.60;9.73;;;;;;;;;;10404504;28;20638;-72
2020/12/20 16:01:08;;;;;;;15.87;8.97;;;;;;;;;;10410090;28;20641;-72
2020/12/20 16:06:11;;;;;;;17.27;9.50;;;;;;;;;;10399887;28;20265;-73
2020/12/20 16:11:32;;;;;;;18.43;9.67;;;;;;;;;;10401860;28;20474;-73
2020/12/20 16:16:34;;;;;;;16.60;9.50;;;;;;;;;;10399099;28;20193;-72
2020/12/20 16:21:37;;;;;;;16.60;9.97;;;;;;;;;;10400032;28;20281;-72
2020/12/20 16:26:39;;;;;;;17.10;10.73;;;;;;;;;;10404648;28;20243;-74
2020/12/20 16:31:43;;;;;;;19.67;11.80;;;;;;;;;;10400180;28;20206;-71
2020/12/20 16:36:45;;;;;;;20.73;12.17;;;;;;;;;;10393482;28;20265;-71
2020/12/20 16:41:47;;;;;;;18.33;9.93;;;;;;;;;;10393412;28;20680;-74
2020/12/20 16:46:52;;;;;;;19.53;10.97;;;;;;;;;;10394062;28;20621;-73
2020/12/20 16:52:14;;;;;;;19.40;9.77;;;;;;;;;;10398836;28;20425;-74
2020/12/20 16:57:16;;;;;;;19.13;10.63;;;;;;;;;;10402420;28;20313;-75
2020/12/20 17:02:18;;;;;;;21.90;11.00;;;;;;;;;;10403613;28;20297;-73
2020/12/20 17:07:39;;;;;;;21.80;11.60;;;;;;;;;;10400252;28;20193;-73
2020/12/20 17:12:41;;;;;;;18.60;9.73;;;;;;;;;;10398797;28;20304;-75
2020/12/20 17:17:48;;;;;;;17.93;10.60;;;;;;;;;;10399286;28;20240;-71
2020/12/20 17:22:55;;;;;;;19.10;10.20;;;;;;;;;;10402402;28;20712;-71
2020/12/20 17:28:01;;;;;;;20.17;11.30;;;;;;;;;;10402139;28;20273;-71
2020/12/20 17:33:08;;;;;;;22.97;11.97;;;;;;;;;;10401916;28;20217;-72
2020/12/20 17:38:16;;;;;;;18.30;10.63;;;;;;;;;;10399449;28;20232;-70
2020/12/20 17:43:23;;;;;;;20.17;11.00;;;;;;;;;;10400285;28;20229;-70
2020/12/20 17:48:31;;;;;;;19.10;10.53;;;;;;;;;;10401640;28;20238;-69
2020/12/20 17:53:37;;;;;;;19.93;11.17;;;;;;;;;;10399759;28;20229;-72
2020/12/20 17:58:39;;;;;;;20.67;11.20;;;;;;;;;;10402083;28;20263;-72
2020/12/20 18:03:41;;;;;;;20.67;11.80;;;;;;;;;;10399537;28;20312;-72
2020/12/20 18:08:43;;;;;;;19.33;9.47;;;;;;;;;;10403700;28;20217;-73
2020/12/20 18:13:45;;;;;;;16.70;7.73;;;;;;;;;;10396868;28;20222;-72
2020/12/20 18:18:49;;;;;;;20.43;10.43;;;;;;;;;;10401736;28;20256;-73
2020/12/20 18:23:51;;;;;;;21.70;11.73;;;;;;;;;;10400180;28;20210;-72
2020/12/20 18:28:53;;;;;;;22.10;11.67;;;;;;;;;;10401251;28;20271;-71
2020/12/20 18:33:55;;;;;;;20.63;11.43;;;;;;;;;;10401089;28;20233;-73
2020/12/20 18:38:56;;;;;;;21.03;12.20;;;;;;;;;;10402506;28;20206;-71
2020/12/20 18:43:58;;;;;;;22.97;11.63;;;;;;;;;;10408553;28;20242;-70
2020/12/20 18:49:00;;;;;;;24.80;13.53;;;;;;;;;;10407492;28;20702;-73
2020/12/20 18:54:04;;;;;;;23.03;11.97;;;;;;;;;;10398896;28;20376;-73
2020/12/20 18:59:06;;;;;;;21.63;12.50;;;;;;;;;;10406729;28;20297;-72
2020/12/20 19:04:09;;;;;;;24.43;13.70;;;;;;;;;;10405228;28;20279;-72
2020/12/20 19:09:11;;;;;;;31.30;15.50;;;;;;;;;;10400288;28;20190;-73
2020/12/20 19:14:12;;;;;;;22.93;12.73;;;;;;;;;;10403949;28;20772;-73
2020/12/20 19:19:17;;;;;;;25.57;13.80;;;;;;;;;;10403406;28;20230;-73
2020/12/20 19:24:22;;;;;;;21.20;10.47;;;;;;;;;;10404568;28;20248;-72
2020/12/20 19:29:24;;;;;;;35.30;17.40;;;;;;;;;;10405518;28;20186;-73
2020/12/20 19:34:27;;;;;;;19.90;12.03;;;;;;;;;;10400644;28;20311;-73
2020/12/20 19:39:29;;;;;;;19.57;10.53;;;;;;;;;;10404622;28;20320;-71
2020/12/20 19:44:30;;;;;;;21.50;10.90;;;;;;;;;;10401811;28;20237;-73
2020/12/20 19:49:33;;;;;;;53.03;18.17;;;;;;;;;;10404140;28;20186;-72
2020/12/20 19:54:34;;;;;;;22.03;12.13;;;;;;;;;;10404318;28;20261;-72
2020/12/20 19:59:36;;;;;;;23.10;12.07;;;;;;;;;;10401331;28;20730;-72
2020/12/20 20:04:39;;;;;;;21.17;8.50;;;;;;;;;;10402648;28;20217;-71
2020/12/20 20:09:41;;;;;;;21.77;10.73;;;;;;;;;;10404213;28;20186;-73
2020/12/20 20:14:42;;;;;;;24.93;12.87;;;;;;;;;;10403916;28;20214;-73
2020/12/20 20:19:45;;;;;;;20.37;10.47;;;;;;;;;;10403443;28;20304;-74
2020/12/20 20:24:46;;;;;;;20.43;11.27;;;;;;;;;;10393497;28;20301;-74
2020/12/20 20:29:48;;;;;;;22.50;11.00;;;;;;;;;;10401341;28;20581;-73
2020/12/20 20:34:50;;;;;;;20.13;10.00;;;;;;;;;;10395434;28;20825;-73
2020/12/20 20:39:52;;;;;;;21.13;11.67;;;;;;;;;;10397832;28;20254;-74
2020/12/20 20:44:53;;;;;;;22.70;11.37;;;;;;;;;;10394212;28;20634;-73
2020/12/20 20:49:56;;;;;;;21.07;11.17;;;;;;;;;;10392213;28;20204;-73
2020/12/20 20:54:58;;;;;;;21.67;10.97;;;;;;;;;;10404582;28;20296;-73
2020/12/20 20:59:59;;;;;;;23.00;12.03;;;;;;;;;;10402596;28;20273;-72
2020/12/20 21:05:02;;;;;;;20.90;11.17;;;;;;;;;;10393124;28;20678;-73
2020/12/20 21:10:03;;;;;;;20.47;11.37;;;;;;;;;;10404632;28;20704;-74
2020/12/20 21:15:05;;;;;;;21.33;11.40;;;;;;;;;;10401381;28;20249;-73
2020/12/20 21:20:07;;;;;;;22.87;12.30;;;;;;;;;;10403049;28;20282;-73
2020/12/20 21:25:12;;;;;;;23.80;11.77;;;;;;;;;;10401030;28;20217;-74
2020/12/20 21:30:15;;;;;;;20.70;11.27;;;;;;;;;;10395858;28;20248;-72
2020/12/20 21:35:18;;;;;;;19.37;11.70;;;;;;;;;;10397982;28;20611;-73
2020/12/20 21:40:19;;;;;;;19.70;10.97;;;;;;;;;;10402168;28;20298;-76
2020/12/20 21:45:23;;;;;;;19.90;11.13;;;;;;;;;;10400797;28;20236;-74
2020/12/20 21:50:25;;;;;;;18.30;10.00;;;;;;;;;;10399909;28;20194;-72
2020/12/20 21:55:28;;;;;;;20.67;11.07;;;;;;;;;;10403048;28;20209;-71
2020/12/20 22:00:33;;;;;;;18.23;9.97;;;;;;;;;;10401089;28;20613;-72
2020/12/20 22:05:36;;;;;;;18.87;10.47;;;;;;;;;;10402225;28;20232;-73
2020/12/20 22:10:39;;;;;;;18.47;10.60;;;;;;;;;;10403534;28;20272;-73
2020/12/20 22:15:40;;;;;;;18.90;10.33;;;;;;;;;;10408572;28;20256;-72
2020/12/20 22:20:42;;;;;;;18.80;10.47;;;;;;;;;;10407503;28;20233;-72
2020/12/20 22:25:44;;;;;;;19.23;10.67;;;;;;;;;;10409680;28;20248;-72
2020/12/20 22:30:46;;;;;;;20.03;11.13;;;;;;;;;;10409702;28;20275;-72
2020/12/20 22:35:48;;;;;;;19.60;10.50;;;;;;;;;;10403573;28;20243;-72
2020/12/20 22:40:49;;;;;;;20.07;11.20;;;;;;;;;;10410217;28;20214;-73
2020/12/20 22:45:51;;;;;;;20.27;11.03;;;;;;;;;;10408081;28;20252;-72
2020/12/20 22:50:53;;;;;;;20.60;10.83;;;;;;;;;;10408548;28;20670;-73
2020/12/20 22:55:55;;;;;;;19.13;11.30;;;;;;;;;;10407962;28;20630;-73
2020/12/20 23:00:56;;;;;;;18.60;11.17;;;;;;;;;;10406894;28;20289;-73
2020/12/20 23:05:59;;;;;;;20.53;11.50;;;;;;;;;;10407683;28;20638;-73
2020/12/20 23:11:00;;;;;;;19.10;10.77;;;;;;;;;;10406835;28;20273;-72
2020/12/20 23:16:03;;;;;;;21.70;11.90;;;;;;;;;;10408807;28;20193;-73
2020/12/20 23:21:07;;;;;;;19.60;10.80;;;;;;;;;;10404639;28;20301;-70
2020/12/20 23:26:09;;;;;;;19.93;9.90;;;;;;;;;;10400341;28;20546;-73
2020/12/20 23:31:13;;;;;;;17.37;9.90;;;;;;;;;;10402166;28;20283;-72
2020/12/20 23:36:22;;;;;;;19.60;10.90;;;;;;;;;;10401488;28;20206;-73
2020/12/20 23:41:23;;;;;;;19.57;11.13;;;;;;;;;;10405911;28;20631;-73
2020/12/20 23:46:25;;;;;;;18.77;10.67;;;;;;;;;;10406385;28;20190;-73
2020/12/20 23:51:28;;;;;;;17.60;10.00;;;;;;;;;;10403285;28;20279;-73
2020/12/20 23:56:29;;;;;;;18.33;9.73;;;;;;;;;;10405410;28;20304;-72
